Weather observations for the past three days for
Clarion
| Date | Time (cdt) | Wind (mph) | Vis. (mi.) | Weather | Sky Cond. | Temperature (ºF) | Relative Humidity | Wind Chill (°F) | Heat Index (°F) | Pressure | Precipitation (in) | ||||||
|---|---|---|---|---|---|---|---|---|---|---|---|---|---|---|---|---|---|
| Air | Dwpt | 6 hour | altimeter (in) | sea level (mb) | 1 hr | 3 hr | 6 hr | ||||||||||
| Max. | Min. | ||||||||||||||||
| 06 | 12:35 | NW 15 G 23 | 10.00 | Overcast | BKN060 OVC070 | 48.2 | 23 | 37% | 43 | 30.05 | 0.0 | ||||||
| 06 | 12:15 | NW 20 G 26 | 10.00 | Overcast | BKN060 OVC070 | 48.2 | 23 | 37% | 42 | 30.05 | 0.0 | ||||||
| 06 | 11:55 | NW 22 | 10.00 | Overcast and Breezy | SCT055 OVC070 | 48.2 | 23 | 37% | 41 | 30.05 | 0.0 | ||||||
| 06 | 11:35 | NW 17 G 26 | 10.00 | Overcast | BKN055 OVC065 | 46.4 | 23 | 40% | 40 | 30.05 | 0.0 | ||||||
| 06 | 11:15 | NW 17 G 24 | 10.00 | Overcast | BKN060 OVC070 | 48.2 | 23 | 37% | 42 | 30.05 | 0.0 | ||||||
| 06 | 10:55 | NW 16 G 24 | 10.00 | Overcast | BKN055 OVC070 | 46.4 | 23 | 40% | 40 | 30.05 | 0.0 | ||||||
| 06 | 10:35 | NW 16 | 10.00 | Mostly Cloudy | FEW049 FEW055 BKN070 | 46.4 | 24.8 | 43% | 40 | 30.05 | 0.0 | ||||||
| 06 | 10:15 | NW 14 | 10.00 | Partly Cloudy | SCT070 | 46.4 | 24.8 | 43% | 41 | 30.05 | 0.0 | ||||||
| 06 | 09:55 | NW 10 | 10.00 | Overcast | OVC065 | 44.6 | 23 | 43% | 40 | 30.05 | 0.0 | ||||||
| 06 | 09:35 | NW 10 | 10.00 | Overcast | OVC070 | 42.8 | 23 | 46% | 38 | 30.05 | 0.0 | ||||||
| 06 | 09:15 | NW 12 | 10.00 | Overcast | OVC070 | 42.8 | 24.8 | 49% | 37 | 30.05 | 0.0 | ||||||
| 06 | 08:55 | NW 8 | 10.00 | Overcast | OVC070 | 41 | 24.8 | 53% | 36 | 30.04 | 0.0 | ||||||
| 06 | 08:35 | NW 8 | 10.00 | Overcast | OVC065 | 41 | 26.6 | 57% | 36 | 30.05 | 0.0 | ||||||
| 06 | 08:15 | NW 8 | 10.00 | Overcast | OVC060 | 39.2 | 26.6 | 61% | 34 | 30.04 | 0.0 | ||||||
| 06 | 07:55 | NW 8 | 10.00 | Overcast | OVC065 | 39.2 | 26.6 | 61% | 34 | 30.04 | 0.0 | ||||||
| 06 | 07:35 | NW 8 | 10.00 | Overcast | OVC065 | 37.4 | 26.6 | 65% | 32 | 30.03 | 0.0 | ||||||
| 06 | 07:15 | W 5 | 9.00 | Partly Cloudy | SCT065 | 35.6 | 24.8 | 65% | 32 | 30.03 | 0.0 | ||||||
| 06 | 06:55 | NW 5 | 10.00 | Fair | CLR | 33.8 | 24.8 | 70% | 30 | 30.02 | 0.0 | ||||||
| 06 | 06:35 | W 6 | 10.00 | A Few Clouds | FEW070 | 32 | 23 | 69% | 27 | 30.01 | 0.0 | ||||||
| 06 | 06:15 | W 5 | 10.00 | A Few Clouds | FEW065 | 32 | 23 | 69% | 28 | 30 | 0.0 | ||||||
| 06 | 05:55 | NW 3 | 10.00 | Fair | CLR | 32 | 23 | 69% | 29.99 | 0.0 | |||||||
| 06 | 05:35 | W 5 | 10.00 | A Few Clouds | FEW060 | 33.8 | 23 | 65% | 30 | 29.99 | 0.0 | ||||||
| 06 | 05:15 | NW 3 | 10.00 | Mostly Cloudy | BKN060 BKN075 | 35.6 | 23 | 60% | 29.98 | 0.0 | |||||||
| 06 | 04:55 | N 3 | 10.00 | Overcast | SCT065 OVC075 | 33.8 | 23 | 65% | 29.98 | 0.0 | |||||||
| 06 | 04:35 | N 5 | 10.00 | Mostly Cloudy | FEW050 BKN075 | 35.6 | 23 | 60% | 32 | 29.99 | 0.0 | ||||||
| 06 | 04:15 | N 5 | 10.00 | A Few Clouds | FEW043 FEW050 | 35.6 | 23 | 60% | 32 | 29.98 | 0.0 | ||||||
| 06 | 03:55 | N 6 | 10.00 | A Few Clouds | FEW037 | 37.4 | 23 | 56% | 33 | 29.98 | 0.0 | ||||||
| 06 | 03:35 | N 6 | 10.00 | Fair | CLR | 37.4 | 23 | 56% | 33 | 29.97 | 0.0 | ||||||
| 06 | 03:15 | N 3 | 10.00 | A Few Clouds | FEW035 FEW043 FEW048 | 37.4 | 23 | 56% | 29.96 | 0.0 | |||||||
| 06 | 02:55 | N 5 | 10.00 | Partly Cloudy | FEW029 FEW033 SCT044 | 37.4 | 23 | 56% | 34 | 29.96 | 0.0 | ||||||
| 06 | 02:35 | N 3 | 10.00 | Fair | CLR | 37.4 | 23 | 56% | 29.96 | 0.0 | |||||||
| 06 | 02:15 | N 5 | 10.00 | Partly Cloudy | FEW065 SCT080 | 37.4 | 23 | 56% | 34 | 29.96 | 0.0 | ||||||
| 06 | 01:55 | N 6 | 10.00 | Mostly Cloudy | BKN075 | 37.4 | 23 | 56% | 33 | 29.97 | 0.0 | ||||||
| 06 | 01:35 | N 6 | 10.00 | A Few Clouds | FEW038 FEW044 FEW049 | 37.4 | 23 | 56% | 33 | 29.96 | 0.0 | ||||||
| 06 | 01:15 | N 6 | 10.00 | A Few Clouds | FEW035 FEW045 | 39.2 | 23 | 52% | 36 | 29.96 | 0.0 | ||||||
| 06 | 00:55 | N 6 | 10.00 | Fair | CLR | 39.2 | 21.2 | 48% | 36 | 29.95 | 0.0 | ||||||
| 06 | 00:35 | N 5 | 10.00 | Fair | CLR | 39.2 | 21.2 | 48% | 36 | 29.94 | 0.0 | ||||||
| 06 | 00:15 | N 6 | 10.00 | Fair | CLR | 41 | 21.2 | 45% | 38 | 29.94 | 0.0 | ||||||
| 05 | 23:55 | N 6 | 10.00 | Fair | CLR | 42.8 | 21.2 | 42% | 40 | 29.93 | 0.0 | ||||||
| 05 | 23:35 | N 6 | 10.00 | A Few Clouds | FEW049 FEW065 | 42.8 | 21.2 | 42% | 40 | 29.93 | 0.0 | ||||||
| 05 | 23:15 | N 8 | 10.00 | A Few Clouds | FEW048 FEW065 | 44.6 | 21.2 | 39% | 41 | 29.93 | 0.0 | ||||||
| 05 | 22:55 | N 10 | 10.00 | A Few Clouds | FEW048 FEW055 FEW065 | 46.4 | 21.2 | 37% | 42 | 29.92 | 0.0 | ||||||
| 05 | 22:35 | N 9 | 10.00 | A Few Clouds | FEW042 FEW050 FEW055 | 46.4 | 21.2 | 37% | 42 | 29.92 | 0.0 | ||||||
| 05 | 22:15 | NW 13 | 10.00 | A Few Clouds | FEW040 FEW049 | 48.2 | 21.2 | 34% | 43 | 29.92 | 0.0 | ||||||
| 05 | 21:55 | N 14 | 10.00 | Mostly Cloudy | FEW037 FEW047 BKN065 | 48.2 | 21.2 | 34% | 43 | 29.92 | 0.0 | ||||||
| 05 | 21:35 | N 16 G 22 | 10.00 | Overcast | BKN060 OVC070 | 50 | 21.2 | 32% | 45 | 29.91 | 0.0 | ||||||
| 05 | 21:15 | NW 10 G 16 | 10.00 | Overcast | BKN065 OVC075 | 50 | 21.2 | 32% | 46 | 29.9 | 0.0 | ||||||
| 05 | 20:55 | NW 12 G 18 | 10.00 | Overcast | OVC070 | 50 | 21.2 | 32% | 46 | 29.89 | 0.0 | ||||||
| 05 | 20:35 | NW 13 | 10.00 | Overcast | SCT065 OVC080 | 50 | 21.2 | 32% | 46 | 29.88 | 0.0 | ||||||
| 05 | 20:15 | N 12 G 18 | 10.00 | Mostly Cloudy | BKN080 BKN085 | 51.8 | 21.2 | 30% | 29.88 | 0.0 | |||||||
| 05 | 19:55 | N 12 G 20 | 10.00 | Partly Cloudy | SCT080 | 51.8 | 19.4 | 28% | 29.87 | 0.0 | |||||||
| 05 | 19:35 | NW 15 | 10.00 | A Few Clouds | FEW080 | 51.8 | 19.4 | 28% | 29.86 | 0.0 | |||||||
| 05 | 19:15 | NW 14 G 22 | 10.00 | Partly Cloudy | SCT075 | 51.8 | 19.4 | 28% | 29.86 | 0.0 | |||||||
| 05 | 18:55 | NW 17 G 23 | 10.00 | A Few Clouds | FEW075 | 53.6 | 21.2 | 28% | 29.86 | 0.0 | |||||||
| 05 | 18:35 | NW 12 G 20 | 10.00 | Partly Cloudy | SCT075 | 53.6 | 21.2 | 28% | 29.85 | 0.0 | |||||||
| 05 | 18:15 | NW 18 | 10.00 | A Few Clouds | FEW080 | 53.6 | 21.2 | 28% | 29.85 | 0.0 | |||||||
| 05 | 17:55 | NW 20 | 10.00 | A Few Clouds | FEW085 | 53.6 | 21.2 | 28% | 29.84 | 0.0 | |||||||
| 05 | 17:35 | N 15 G 24 | 10.00 | Partly Cloudy | SCT080 | 55.4 | 23 | 28% | 29.84 | 0.0 | |||||||
| 05 | 17:15 | NW 14 G 21 | 10.00 | Partly Cloudy | SCT080 | 53.6 | 21.2 | 28% | 29.84 | 0.0 | |||||||
| 05 | 16:55 | NW 17 | 10.00 | A Few Clouds | FEW080 | 55.4 | 23 | 28% | 29.84 | 0.0 | |||||||
| 05 | 16:35 | NW 16 | 10.00 | Fair | CLR | 55.4 | 23 | 28% | 29.85 | 0.0 | |||||||
| 05 | 16:15 | W 14 G 21 | 10.00 | A Few Clouds | FEW070 | 57.2 | 23 | 27% | 29.85 | 0.0 | |||||||
| 05 | 15:55 | NW 15 G 22 | 10.00 | Partly Cloudy | SCT070 | 55.4 | 23 | 28% | 29.85 | 0.0 | |||||||
| 05 | 15:35 | NW 21 | 10.00 | A Few Clouds and Breezy | FEW070 | 55.4 | 23 | 28% | 29.85 | 0.0 | |||||||
| 05 | 15:15 | W 18 | 10.00 | A Few Clouds | FEW070 | 55.4 | 23 | 28% | 29.85 | 0.0 | |||||||
| 05 | 14:55 | NW 18 G 24 | 10.00 | Fair | CLR | 55.4 | 23 | 28% | 29.86 | 0.0 | |||||||
| 05 | 14:35 | NW 14 G 24 | 10.00 | A Few Clouds | FEW070 | 55.4 | 23 | 28% | 29.86 | 0.0 | |||||||
| 05 | 14:15 | NW 12 G 28 | 10.00 | Partly Cloudy | SCT070 | 55.4 | 23 | 28% | 29.86 | 0.0 | |||||||
| 05 | 13:55 | NW 16 G 23 | 10.00 | Partly Cloudy | SCT070 | 55.4 | 23 | 28% | 29.86 | 0.0 | |||||||
| 05 | 13:35 | NW 17 G 25 | 10.00 | Fair | CLR | 57.2 | 24.8 | 29% | 29.86 | 0.0 | |||||||
| 05 | 13:15 | NW 13 G 26 | 10.00 | A Few Clouds | FEW070 | 55.4 | 23 | 28% | 29.86 | 0.0 | |||||||
| 05 | 12:55 | W 14 G 26 | 10.00 | A Few Clouds | FEW070 | 55.4 | 23 | 28% | 29.86 | 0.0 | |||||||
| 05 | 12:35 | NW 17 | 10.00 | Partly Cloudy | SCT070 | 53.6 | 23 | 30% | 29.87 | 0.0 | |||||||
| 05 | 12:15 | W 14 G 24 | 10.00 | Partly Cloudy | SCT070 | 55.4 | 24.8 | 31% | 29.86 | 0.0 | |||||||
| 05 | 11:55 | NW 17 | 10.00 | Mostly Cloudy | BKN065 | 53.6 | 24.8 | 33% | 29.86 | 0.0 | |||||||
| 05 | 11:35 | W 8 G 15 | 10.00 | Mostly Cloudy | BKN060 BKN070 | 51.8 | 24.8 | 35% | 29.87 | 0.0 | |||||||
| 05 | 11:15 | W 8 G 23 | 10.00 | Partly Cloudy | SCT060 | 51.8 | 24.8 | 35% | 29.87 | 0.0 | |||||||
| 05 | 10:35 | W 12 | 10.00 | Partly Cloudy | SCT055 | 51.8 | 24.8 | 35% | 29.87 | 0.0 | |||||||
| 05 | 10:15 | W 10 G 16 | 10.00 | A Few Clouds | FEW055 | 51.8 | 26.6 | 38% | 29.87 | 0.0 | |||||||
| 05 | 09:55 | NW 10 | 10.00 | Fair | CLR | 50 | 26.6 | 40% | 46 | 29.88 | 0.0 | ||||||
| 05 | 09:35 | N 8 | 10.00 | Fair | CLR | 50 | 28.4 | 43% | 47 | 29.87 | 0.0 | ||||||
| 05 | 09:15 | N 8 | 10.00 | Fair | CLR | 48.2 | 28.4 | 46% | 45 | 29.86 | 0.0 | ||||||
| 05 | 08:55 | NW 10 | 10.00 | Fair | CLR | 48.2 | 28.4 | 46% | 44 | 29.86 | 0.0 | ||||||
| 05 | 08:35 | NW 7 | 10.00 | Fair | CLR | 46.4 | 28.4 | 50% | 43 | 29.85 | 0.0 | ||||||
| 05 | 08:15 | NW 8 | 10.00 | Fair | CLR | 46.4 | 28.4 | 50% | 43 | 29.86 | 0.0 | ||||||
| 05 | 07:55 | W 5 | 10.00 | Fair | CLR | 46.4 | 28.4 | 50% | 45 | 29.85 | 0.0 | ||||||
| 05 | 07:35 | W 5 | 10.00 | Fair | CLR | 42.8 | 30.2 | 61% | 41 | 29.85 | 0.0 | ||||||
| 05 | 07:15 | W 5 | 10.00 | Fair | CLR | 39.2 | 28.4 | 65% | 36 | 29.85 | 0.0 | ||||||
| 05 | 06:55 | Calm | 10.00 | Fair | CLR | 37.4 | 26.6 | 65% | 29.84 | 0.0 | |||||||
| 05 | 06:35 | Calm | 10.00 | Fair | CLR | 35.6 | 26.6 | 70% | 29.83 | 0.0 | |||||||
| 05 | 06:15 | Calm | 10.00 | Fair | CLR | 37.4 | 26.6 | 65% | 29.83 | 0.0 | |||||||
| 05 | 05:55 | Calm | 10.00 | Fair | CLR | 35.6 | 26.6 | 70% | 29.82 | 0.0 | |||||||
| 05 | 05:35 | Calm | 10.00 | Fair | CLR | 35.6 | 26.6 | 70% | 29.82 | 0.0 | |||||||
| 05 | 05:15 | W 3 | 10.00 | A Few Clouds | FEW050 FEW055 | 39.2 | 26.6 | 61% | 29.81 | 0.0 | |||||||
| 05 | 04:55 | N 8 | 10.00 | A Few Clouds | FEW050 | 41 | 24.8 | 53% | 36 | 29.8 | 0.0 | ||||||
| 05 | 04:35 | N 8 | 10.00 | Fair | CLR | 41 | 26.6 | 57% | 36 | 29.79 | 0.0 | ||||||
| 05 | 04:15 | NW 7 | 10.00 | A Few Clouds | FEW047 | 41 | 26.6 | 57% | 37 | 29.79 | 0.0 | ||||||
| 05 | 03:55 | NW 7 | 10.00 | A Few Clouds | FEW049 | 41 | 26.6 | 57% | 37 | 29.78 | 0.0 | ||||||
| 05 | 03:35 | NW 8 | 10.00 | Fair | CLR | 42.8 | 26.6 | 53% | 39 | 29.78 | 0.0 | ||||||
| 05 | 03:15 | NW 6 | 10.00 | A Few Clouds | FEW050 | 42.8 | 28.4 | 57% | 40 | 29.77 | 0.0 | ||||||
| 05 | 02:55 | W 5 | 10.00 | A Few Clouds | FEW047 | 42.8 | 28.4 | 57% | 41 | 29.78 | 0.0 | ||||||
| 05 | 02:35 | NW 5 | 10.00 | A Few Clouds | FEW046 | 42.8 | 28.4 | 57% | 41 | 29.77 | 0.0 | ||||||
| 05 | 02:15 | W 5 | 10.00 | A Few Clouds | FEW048 | 42.8 | 28.4 | 57% | 41 | 29.77 | 0.0 | ||||||
| 05 | 01:55 | NW 5 | 10.00 | Fair | CLR | 44.6 | 26.6 | 49% | 43 | 29.77 | 0.0 | ||||||
| 05 | 01:35 | Calm | 10.00 | Fair | CLR | 46.4 | 26.6 | 46% | 29.77 | 0.0 | |||||||
| 05 | 01:15 | N 5 | 10.00 | Fair | CLR | 48.2 | 26.6 | 43% | 47 | 29.77 | 0.0 | ||||||
| 05 | 00:55 | N 6 | 10.00 | A Few Clouds | FEW047 | 48.2 | 26.6 | 43% | 46 | 29.77 | 0.0 | ||||||
| 05 | 00:35 | N 8 | 10.00 | A Few Clouds | FEW049 FEW120 | 48.2 | 26.6 | 43% | 45 | 29.77 | 0.0 | ||||||
| 05 | 00:15 | N 8 | 0.00 | A Few Clouds | FEW047 FEW120 | 48.2 | 26.6 | 43% | 45 | 29.76 | 0.0 | ||||||
| 04 | 23:55 | N 7 | 10.00 | A Few Clouds | FEW047 FEW120 | 50 | 26.6 | 40% | 48 | 29.76 | 0.0 | ||||||
| 04 | 23:35 | NW 10 | 10.00 | Partly Cloudy | FEW048 SCT120 | 50 | 26.6 | 40% | 46 | 29.76 | 0.0 | ||||||
| 04 | 23:15 | N 13 | 10.00 | Mostly Cloudy | SCT047 BKN120 | 50 | 26.6 | 40% | 46 | 29.75 | 0.0 | ||||||
| 04 | 22:55 | NW 13 G 18 | 10.00 | Partly Cloudy | FEW032 SCT044 SCT049 | 51.8 | 26.6 | 38% | 29.75 | 0.0 | |||||||
| 04 | 22:35 | NW 15 | 10.00 | A Few Clouds | FEW037 FEW043 | 51.8 | 26.6 | 38% | 29.75 | 0.0 | |||||||
| 04 | 22:15 | NW 16 G 24 | 10.00 | Partly Cloudy | SCT040 SCT047 | 51.8 | 26.6 | 38% | 29.76 | 0.0 | |||||||
| 04 | 21:55 | NW 22 | 10.00 | A Few Clouds and Breezy | FEW047 FEW090 FEW120 | 51.8 | 28.4 | 41% | 29.75 | 0.0 | |||||||
| 04 | 21:35 | NW 20 G 26 | 10.00 | Partly Cloudy | FEW049 SCT090 SCT120 | 53.6 | 28.4 | 38% | 29.74 | 0.0 | |||||||
| 04 | 21:15 | NW 21 G 26 | 10.00 | A Few Clouds and Breezy | FEW049 FEW065 FEW120 | 53.6 | 28.4 | 38% | 29.73 | 0.0 | |||||||
| 04 | 20:55 | NW 18 G 24 | 10.00 | Partly Cloudy | SCT120 | 53.6 | 28.4 | 38% | 29.71 | 0.0 | |||||||
| 04 | 20:35 | N 21 G 31 | 10.00 | Overcast and Breezy | FEW050 FEW065 OVC120 | 55.4 | 30.2 | 38% | 29.7 | 0.0 | |||||||
| 04 | 20:15 | NW 20 G 30 | 10.00 | Mostly Cloudy | FEW049 SCT055 BKN065 | 55.4 | 30.2 | 38% | 29.68 | 0.0 | |||||||
| 04 | 19:55 | NW 22 | 9.00 | Mostly Cloudy and Breezy | FEW049 SCT055 BKN065 | 57.2 | 32 | 39% | 29.67 | 0.0 | |||||||
| 04 | 19:35 | NW 14 G 23 | 10.00 | A Few Clouds | FEW100 | 59 | 32 | 36% | 29.68 | 0.0 | |||||||
| 04 | 19:15 | NW 18 G 26 | 10.00 | A Few Clouds | FEW075 FEW100 FEW120 | 59 | 32 | 36% | 29.66 | 0.0 | |||||||
| 04 | 18:55 | NW 24 G 31 | 10.00 | Fair and Breezy | CLR | 60.8 | 30.2 | 31% | 29.66 | 0.0 | |||||||
| 04 | 18:35 | NW 31 G 40 | 10.00 | Fair and Windy | CLR | 60.8 | 32 | 34% | 29.65 | 0.0 | |||||||
| 04 | 18:15 | NW 26 G 33 | 10.00 | Fair and Windy | CLR | 62.6 | 28.4 | 27% | 29.65 | 0.0 | |||||||
| 04 | 17:55 | NW 26 G 37 | 10.00 | Fair and Windy | CLR | 64.4 | 26.6 | 24% | 29.65 | 0.0 | |||||||
| 04 | 17:35 | NW 29 G 36 | 10.00 | Fair and Windy | CLR | 66.2 | 26.6 | 22% | 29.63 | 0.0 | |||||||
| 04 | 17:15 | NW 25 G 33 | 10.00 | Fair and Breezy | CLR | 68 | 28.4 | 23% | 29.62 | 0.0 | |||||||
| 04 | 16:55 | N 23 G 37 | 10.00 | Fair and Breezy | CLR | 68 | 32 | 26% | 29.6 | 0.0 | |||||||
| 04 | 16:35 | NW 23 G 35 | 10.00 | Fair and Breezy | CLR | 69.8 | 32 | 25% | 29.59 | 0.0 | |||||||
| 04 | 16:15 | NW 28 G 35 | 10.00 | Fair and Windy | CLR | 71.6 | 30.2 | 22% | 29.59 | 0.0 | |||||||
| 04 | 15:55 | NW 25 G 35 | 10.00 | Fair and Breezy | CLR | 71.6 | 32 | 23% | 29.58 | 0.0 | |||||||
| 04 | 15:35 | NW 25 G 33 | 10.00 | Fair and Breezy | CLR | 71.6 | 33.8 | 25% | 29.59 | 0.0 | |||||||
| 04 | 15:15 | NW 21 G 35 | 10.00 | Fair and Breezy | CLR | 71.6 | 32 | 23% | 29.58 | 0.0 | |||||||
| 04 | 14:55 | NW 28 G 33 | 10.00 | Fair and Windy | CLR | 71.6 | 32 | 23% | 29.58 | 0.0 | |||||||
| 04 | 14:35 | NW 24 G 32 | 10.00 | Fair and Breezy | CLR | 73.4 | 32 | 22% | 29.57 | 0.0 | |||||||
| 04 | 14:15 | NW 22 G 32 | 10.00 | Fair and Breezy | CLR | 73.4 | 32 | 22% | 29.57 | 0.0 | |||||||
| 04 | 13:55 | NW 20 G 28 | 10.00 | Fair | CLR | 73.4 | 33.8 | 23% | 29.56 | 0.0 | |||||||
| 04 | 13:35 | N 20 G 30 | 10.00 | Fair | CLR | 73.4 | 35.6 | 25% | 29.56 | 0.0 | |||||||
| 04 | 13:15 | NW 20 G 28 | 10.00 | Fair | CLR | 73.4 | 39.2 | 29% | 29.55 | 0.0 | |||||||
| 04 | 12:55 | NW 15 G 25 | 10.00 | Fair | CLR | 73.4 | 41 | 31% | 29.55 | 0.0 | |||||||
| 04 | 12:35 | NW 23 G 31 | 10.00 | Fair and Breezy | CLR | 73.4 | 42.8 | 33% | 29.54 | 0.0 | |||||||
| 04 | 12:15 | NW 23 G 30 | 10.00 | Fair and Breezy | CLR | 73.4 | 42.8 | 33% | 29.54 | 0.0 | |||||||
| 04 | 11:55 | NW 24 G 32 | 10.00 | Fair and Breezy | CLR | 75.2 | 41 | 29% | 77 | 29.53 | 0.0 | ||||||
| 04 | 11:35 | NW 24 G 33 | 9.00 | Fair and Breezy | CLR | 75.2 | 41 | 29% | 77 | 29.53 | 0.0 | ||||||
| 04 | 11:15 | W 24 G 33 | 10.00 | Fair and Breezy | CLR | 77 | 41 | 28% | 78 | 29.52 | 0.0 | ||||||
| 04 | 10:55 | W 26 G 36 | 9.00 | Fair and Windy | CLR | 75.2 | 39.2 | 27% | 77 | 29.53 | 0.0 | ||||||
| 04 | 10:35 | W 29 G 35 | 10.00 | Fair and Windy | CLR | 73.4 | 39.2 | 29% | 29.53 | 0.0 | |||||||
| 04 | 10:15 | W 22 G 32 | 10.00 | Fair and Breezy | CLR | 73.4 | 39.2 | 29% | 29.53 | 0.0 | |||||||
| 04 | 09:55 | SW 23 | 10.00 | Fair and Breezy | CLR | 71.6 | 39.2 | 31% | 29.53 | 0.0 | |||||||
| 04 | 09:35 | SW 22 | 10.00 | Fair and Breezy | CLR | 69.8 | 39.2 | 33% | 29.54 | 0.0 | |||||||
| 04 | 09:15 | SW 22 | 9.00 | Fair and Breezy | CLR | 68 | 39.2 | 35% | 29.54 | 0.0 | |||||||
| 04 | 08:55 | SW 20 | 10.00 | Fair | CLR | 66.2 | 39.2 | 37% | 29.55 | 0.0 | |||||||
| 04 | 08:35 | SW 17 G 25 | 10.00 | Fair | CLR | 64.4 | 39.2 | 40% | 29.55 | 0.0 | |||||||
| 04 | 08:15 | SW 17 | 10.00 | A Few Clouds | FEW100 | 60.8 | 41 | 48% | 29.56 | 0.0 | |||||||
| 04 | 07:55 | SW 14 | 10.00 | A Few Clouds | FEW100 | 57.2 | 41 | 55% | 29.56 | 0.0 | |||||||
| 04 | 07:35 | SW 10 | 10.00 | Partly Cloudy | SCT095 | 53.6 | 39.2 | 58% | 29.55 | 0.0 | |||||||
| 04 | 06:55 | S 8 | 10.00 | Partly Cloudy | SCT095 | 50 | 37.4 | 62% | 47 | 29.56 | 0.0 | ||||||
| 04 | 06:35 | S 8 | 10.00 | A Few Clouds | FEW095 | 46.4 | 35.6 | 66% | 43 | 29.57 | 0.0 | ||||||
| 04 | 06:15 | S 8 | 10.00 | Fair | CLR | 44.6 | 35.6 | 71% | 41 | 29.57 | 0.0 | ||||||
| 04 | 05:55 | S 7 | 10.00 | Fair | CLR | 44.6 | 35.6 | 71% | 41 | 29.57 | 0.0 | ||||||
| 04 | 05:35 | S 8 | 10.00 | Fair | CLR | 44.6 | 33.8 | 66% | 41 | 29.58 | 0.0 | ||||||
| 04 | 05:15 | S 7 | 10.00 | A Few Clouds | FEW044 | 44.6 | 33.8 | 66% | 41 | 29.59 | 0.0 | ||||||
| 04 | 04:55 | S 8 | 10.00 | Fair | CLR | 44.6 | 33.8 | 66% | 41 | 29.59 | 0.0 | ||||||
| 04 | 04:35 | S 8 | 10.00 | Fair | CLR | 44.6 | 33.8 | 66% | 41 | 29.6 | 0.0 | ||||||
| 04 | 04:15 | S 8 | 10.00 | Fair | CLR | 46.4 | 33.8 | 62% | 43 | 29.6 | 0.0 | ||||||
| 04 | 03:55 | S 6 | 10.00 | A Few Clouds | FEW043 FEW050 FEW055 | 44.6 | 33.8 | 66% | 42 | 29.61 | 0.0 | ||||||
| 04 | 03:35 | S 7 | 10.00 | A Few Clouds | FEW046 FEW055 | 46.4 | 33.8 | 62% | 43 | 29.61 | 0.0 | ||||||
| 04 | 03:15 | S 8 | 10.00 | Fair | CLR | 46.4 | 33.8 | 62% | 43 | 29.62 | 0.0 | ||||||
| 04 | 02:55 | S 8 | 10.00 | Fair | CLR | 46.4 | 33.8 | 62% | 43 | 29.62 | 0.0 | ||||||
| 04 | 02:35 | S 9 | 10.00 | Fair | CLR | 48.2 | 33.8 | 58% | 45 | 29.63 | 0.0 | ||||||
| 04 | 02:15 | S 6 | 10.00 | A Few Clouds | FEW055 | 46.4 | 32 | 57% | 44 | 29.64 | 0.0 | ||||||
| 04 | 01:55 | S 7 | 10.00 | Partly Cloudy | FEW050 SCT055 SCT065 | 48.2 | 32 | 54% | 46 | 29.65 | 0.0 | ||||||
| 04 | 01:35 | S 8 | 10.00 | Partly Cloudy | FEW045 SCT050 SCT065 | 46.4 | 32 | 57% | 43 | 29.66 | 0.0 | ||||||
| 04 | 01:15 | S 8 | 10.00 | Partly Cloudy | SCT050 SCT065 | 48.2 | 32 | 54% | 45 | 29.66 | 0.0 | ||||||
| 04 | 00:55 | S 7 | 10.00 | Partly Cloudy | SCT050 SCT060 | 48.2 | 32 | 54% | 46 | 29.67 | 0.0 | ||||||
| 04 | 00:35 | S 6 | 10.00 | A Few Clouds | FEW050 FEW060 | 48.2 | 32 | 54% | 46 | 29.68 | 0.0 | ||||||
| 04 | 00:15 | S 6 | 10.00 | Fair | CLR | 48.2 | 32 | 54% | 46 | 29.69 | 0.0 | ||||||
| 03 | 23:55 | SW 6 | 10.00 | Fair | CLR | 50 | 32 | 50% | 48 | 29.69 | 0.0 | ||||||
| 03 | 23:35 | S 5 | 10.00 | A Few Clouds | FEW037 FEW047 | 51.8 | 30.2 | 44% | 29.7 | 0.0 | |||||||
| 03 | 23:15 | SW 3 | 10.00 | A Few Clouds | FEW040 FEW055 | 51.8 | 30.2 | 44% | 29.71 | 0.0 | |||||||
| 03 | 22:55 | S 7 | 10.00 | Fair | CLR | 51.8 | 30.2 | 44% | 29.71 | 0.0 | |||||||
| 03 | 22:35 | S 6 | 10.00 | Fair | CLR | 51.8 | 30.2 | 44% | 29.72 | 0.0 | |||||||
| 03 | 22:15 | S 7 | 10.00 | Fair | CLR | 55.4 | 30.2 | 38% | 29.73 | 0.0 | |||||||
| 03 | 21:55 | SW 7 | 10.00 | Fair | CLR | 53.6 | 28.4 | 38% | 29.73 | 0.0 | |||||||
| 03 | 21:35 | SW 7 | 10.00 | A Few Clouds | FEW045 | 57.2 | 30.2 | 36% | 29.73 | 0.0 | |||||||
| 03 | 21:15 | SW 3 | 10.00 | A Few Clouds | FEW046 | 57.2 | 30.2 | 36% | 29.73 | 0.0 | |||||||
| 03 | 20:55 | Calm | 10.00 | Fair | CLR | 60.8 | 30.2 | 31% | 29.73 | 0.0 | |||||||
| 03 | 20:35 | W 3 | 10.00 | Fair | CLR | 62.6 | 30.2 | 30% | 29.73 | 0.0 | |||||||
| 03 | 20:15 | NW 6 | 10.00 | Fair | CLR | 64.4 | 30.2 | 28% | 29.72 | 0.0 | |||||||
| 03 | 19:55 | W 9 | 9.00 | Fair | CLR | 68 | 30.2 | 24% | 29.73 | 0.0 | |||||||
| 03 | 19:35 | NW 15 | 10.00 | Fair | CLR | 69.8 | 28.4 | 21% | 29.73 | 0.0 | |||||||
| 03 | 19:15 | W 14 | 10.00 | Fair | CLR | 71.6 | 30.2 | 22% | 29.73 | 0.0 | |||||||
| 03 | 18:55 | NW 15 G 21 | 10.00 | Fair | CLR | 71.6 | 30.2 | 22% | 29.73 | 0.0 | |||||||
| 03 | 18:35 | NW 16 G 22 | 10.00 | Fair | CLR | 71.6 | 30.2 | 22% | 29.73 | 0.0 | |||||||
| 03 | 18:15 | W 15 G 22 | 10.00 | Fair | CLR | 73.4 | 30.2 | 20% | 29.74 | 0.0 | |||||||
| 03 | 17:55 | NW 12 G 22 | 10.00 | Fair | CLR | 73.4 | 30.2 | 20% | 29.74 | 0.0 | |||||||
| 03 | 17:35 | NW 12 G 22 | 10.00 | Fair | CLR | 73.4 | 28.4 | 19% | 29.74 | 0.0 | |||||||
| 03 | 17:15 | NW 20 G 26 | 10.00 | Fair | CLR | 73.4 | 30.2 | 20% | 29.74 | 0.0 | |||||||
| 03 | 16:55 | NW 17 G 25 | 10.00 | Fair | CLR | 73.4 | 30.2 | 20% | 29.74 | 0.0 | |||||||
| 03 | 16:35 | NW 20 | 10.00 | Fair | CLR | 73.4 | 28.4 | 19% | 29.74 | 0.0 | |||||||
| 03 | 16:15 | NW 14 G 25 | 10.00 | Fair | CLR | 73.4 | 30.2 | 20% | 29.75 | 0.0 | |||||||
| 03 | 15:55 | NW 14 G 26 | 10.00 | Fair | CLR | 73.4 | 32 | 22% | 29.75 | 0.0 | |||||||
| 03 | 15:35 | N 15 G 28 | 10.00 | Fair | CLR | 73.4 | 32 | 22% | 29.75 | 0.0 | |||||||
| 03 | 15:15 | NW 15 G 30 | 10.00 | Fair | CLR | 73.4 | 30.2 | 20% | 29.76 | 0.0 | |||||||
| 03 | 14:55 | NW 25 | 10.00 | Fair and Breezy | CLR | 73.4 | 32 | 22% | 29.76 | 0.0 | |||||||
| 03 | 14:35 | N 18 G 37 | 10.00 | Fair | CLR | 73.4 | 32 | 22% | 29.76 | 0.0 | |||||||
| 03 | 14:15 | NW 18 G 30 | 10.00 | Fair | CLR | 73.4 | 30.2 | 20% | 29.76 | 0.0 | |||||||
| 03 | 13:55 | NW 22 G 35 | 10.00 | Fair and Breezy | CLR | 71.6 | 32 | 23% | 29.76 | 0.0 | |||||||
| 03 | 13:35 | NW 26 G 33 | 10.00 | Fair and Windy | CLR | 71.6 | 32 | 23% | 29.76 | 0.0 | |||||||
| 03 | 13:15 | NW 17 G 32 | 10.00 | Fair | CLR | 71.6 | 32 | 23% | 29.76 | 0.0 | |||||||
| 03 | 12:55 | NW 20 G 31 | 10.00 | Fair | CLR | 69.8 | 33.8 | 27% | 29.77 | 0.0 | |||||||
| Date | Time (cdt) | Wind (mph) | Vis. (mi.) | Weather | Sky Cond. | Air | Dwpt | Max. | Min. | Relative Humidity | Wind Chill (°F) | Heat Index (°F) | altimeter (in) | sea level (mb) | 1 hr | 3 hr | 6 hr |
| 6 hour | |||||||||||||||||
| Temperature (ºF) | Pressure | Precipitation (in) | |||||||||||||||